Terminal Aerodrome Forecast
Issued by NWS

Home | Current Version | Previous Version | Text Only | Print | Product List | Glossary On
Versions: 1 2 3 4 5 6 7 8 9 10 11 12 13 14 15 16 17 18 19 20 21 22 23 24 25 26 27 28 29 30 31 32 33 34
000
FTUS41 KBOX 022325
TAFBED
TAF
KBED 022325Z 0300/0324 30010G25KT P6SM SCT050
     FM030500 30008KT P6SM FEW250
     FM030900 29004KT P6SM FEW250
     FM031800 23004KT P6SM SCT200
     FM032100 18006KT P6SM BKN110=

USA.gov is the U.S. government's official web portal to all federal, state and local government web resources and services.